Time;durP1;ratioP1;P1;durP2;ratioP2;P2;SDS_P1;SDS_P2;PMS_P1;PMS_P2;Temp;Humidity;BMP_temperature;BMP_pressure;BME280_temperature;BME280_humidity;BME280_pressure;Samples;Min_cycle;Max_cycle;Signal;HPM_P1;HPM_P2
2022/12/27 00:00:50;;;;;;;41.23;25.63;;;;;;;5.05;88.68;100394.50;4996354;28;20670;-71
2022/12/27 00:03:17;;;;;;;40.60;24.60;;;;;;;4.97;88.88;100386.47;4996427;28;20210;-72
2022/12/27 00:05:44;;;;;;;40.37;24.13;;;;;;;4.92;88.45;100382.56;4996655;28;20198;-71
2022/12/27 00:08:10;;;;;;;45.57;25.70;;;;;;;4.93;88.23;100384.22;4996568;28;20194;-72
2022/12/27 00:10:37;;;;;;;45.27;24.70;;;;;;;4.86;88.42;100370.78;4996139;28;20276;-72
2022/12/27 00:13:04;;;;;;;43.50;26.07;;;;;;;4.70;88.89;100373.13;4996243;28;20253;-72
2022/12/27 00:15:33;;;;;;;38.73;24.70;;;;;;;4.69;90.28;100378.53;4996423;28;20268;-72
2022/12/27 00:18:01;;;;;;;44.60;26.33;;;;;;;4.74;91.02;100376.34;4995985;28;20199;-71
2022/12/27 00:20:28;;;;;;;47.17;25.63;;;;;;;4.72;89.95;100360.69;4996367;28;20226;-72
2022/12/27 00:22:55;;;;;;;44.83;25.17;;;;;;;4.70;89.46;100373.13;4996330;28;20454;-72
2022/12/27 00:25:22;;;;;;;43.20;24.30;;;;;;;4.52;89.58;100372.16;4996176;28;20633;-73
2022/12/27 00:27:48;;;;;;;44.23;24.30;;;;;;;4.50;91.12;100365.38;4995847;28;20194;-72
2022/12/27 00:30:15;;;;;;;40.43;24.33;;;;;;;4.49;90.61;100364.53;4995968;28;20353;-72
2022/12/27 00:32:41;;;;;;;42.23;26.17;;;;;;;4.51;90.10;100357.34;4995707;28;20646;-72
2022/12/27 00:35:10;;;;;;;39.33;23.83;;;;;;;4.50;90.41;100350.41;4995870;28;20624;-72
2022/12/27 00:37:36;;;;;;;44.40;23.53;;;;;;;4.55;89.47;100358.75;4995344;28;20745;-72
2022/12/27 00:40:04;;;;;;;38.17;23.13;;;;;;;4.53;89.49;100354.56;4995851;28;20198;-71
2022/12/27 00:42:30;;;;;;;40.67;22.50;;;;;;;4.45;89.59;100352.63;4995233;28;20195;-69
2022/12/27 00:44:57;;;;;;;46.70;24.47;;;;;;;4.46;89.90;100343.75;4995628;28;20981;-70
2022/12/27 00:47:24;;;;;;;34.77;22.17;;;;;;;4.49;89.81;100335.59;4995612;28;20195;-70
2022/12/27 00:49:50;;;;;;;42.50;24.30;;;;;;;4.47;89.40;100341.97;4995549;28;20194;-71
2022/12/27 00:52:19;;;;;;;43.90;23.33;;;;;;;4.47;90.16;100345.44;4995550;28;20256;-71
2022/12/27 00:54:45;;;;;;;39.00;23.60;;;;;;;4.48;89.46;100336.56;4995674;28;20201;-70
2022/12/27 00:57:12;;;;;;;40.57;22.63;;;;;;;4.49;89.70;100338.22;4995743;28;20195;-71
2022/12/27 00:59:39;;;;;;;37.03;21.67;;;;;;;4.51;88.82;100336.31;4995528;28;20437;-71
2022/12/27 01:02:05;;;;;;;35.33;23.10;;;;;;;4.52;89.07;100334.47;4995487;28;20253;-70
2022/12/27 01:04:32;;;;;;;35.77;21.47;;;;;;;4.54;88.91;100325.47;4992475;28;20330;-70
2022/12/27 01:06:59;;;;;;;33.57;21.50;;;;;;;4.54;88.48;100322.84;4994508;28;20198;-69
2022/12/27 01:09:27;;;;;;;37.37;22.20;;;;;;;4.53;88.67;100326.47;4994667;28;20737;-69
2022/12/27 01:11:54;;;;;;;36.10;22.10;;;;;;;4.55;88.81;100331.59;4995065;28;20772;-69
2022/12/27 01:14:20;;;;;;;39.23;21.73;;;;;;;4.50;89.11;100344.31;4995149;28;20245;-69
2022/12/27 01:16:47;;;;;;;40.23;23.60;;;;;;;4.47;88.84;100340.19;4994990;28;20191;-70
2022/12/27 01:19:14;;;;;;;38.10;22.03;;;;;;;4.43;89.74;100344.03;4995320;28;20592;-70
2022/12/27 01:21:40;;;;;;;33.70;22.23;;;;;;;4.46;89.25;100335.84;4995346;28;20230;-70
2022/12/27 01:24:07;;;;;;;32.63;21.43;;;;;;;4.49;88.94;100332.97;4994717;28;20249;-70
2022/12/27 01:26:35;;;;;;;37.90;23.40;;;;;;;4.52;88.72;100337.13;4994926;28;20198;-71
2022/12/27 01:29:02;;;;;;;35.83;23.20;;;;;;;4.50;88.31;100325.91;4995410;28;20194;-71
2022/12/27 01:31:29;;;;;;;33.17;23.20;;;;;;;4.52;87.84;100327.44;4993991;28;20222;-71
2022/12/27 01:33:57;;;;;;;35.97;23.63;;;;;;;4.51;87.96;100315.25;4994298;28;20634;-69
2022/12/27 01:36:25;;;;;;;39.17;23.00;;;;;;;4.51;87.75;100312.63;4994871;28;20261;-70
2022/12/27 01:38:52;;;;;;;36.23;23.63;;;;;;;4.52;88.31;100316.91;4994935;28;20221;-70
2022/12/27 01:44:54;;;;;;;38.60;22.47;;;;;;;4.47;88.33;100307.75;4994703;28;20201;-70
2022/12/27 01:47:31;;;;;;;31.37;21.60;;;;;;;4.14;89.70;100310.78;4994860;28;20472;-70
2022/12/27 01:50:05;;;;;;;74.83;35.47;;;;;;;4.14;89.72;100308.13;4994499;28;20230;-71
2022/12/27 01:52:36;;;;;;;65.53;31.47;;;;;;;4.01;90.17;100308.38;4994202;28;20697;-70
2022/12/27 01:55:12;;;;;;;48.13;25.67;;;;;;;3.97;90.22;100298.28;4994438;28;20187;-70
2022/12/27 01:57:39;;;;;;;63.47;30.60;;;;;;;3.83;91.06;100302.09;4994108;28;20249;-71
2022/12/27 02:00:07;;;;;;;60.60;29.63;;;;;;;3.71;91.71;100297.91;4994688;28;20194;-70
2022/12/27 02:02:35;;;;;;;54.60;27.27;;;;;;;3.68;92.32;100298.19;4994177;28;20261;-70
2022/12/27 02:05:02;;;;;;;45.00;24.73;;;;;;;3.64;92.51;100306.47;4994372;28;20198;-70
2022/12/27 02:07:39;;;;;;;40.43;23.60;;;;;;;3.64;92.08;100299.41;4994714;28;20195;-71
2022/12/27 02:10:06;;;;;;;56.03;31.60;;;;;;;3.67;93.04;100296.53;4994538;28;20728;-70
2022/12/27 02:12:33;;;;;;;50.93;27.13;;;;;;;3.68;92.21;100297.38;4993957;28;20698;-70
2022/12/27 02:15:01;;;;;;;47.77;27.53;;;;;;;3.72;93.38;100293.50;4994051;28;20474;-70
2022/12/27 02:17:31;;;;;;;39.30;24.47;;;;;;;3.68;91.67;100298.19;4993814;28;20457;-70
2022/12/27 02:20:06;;;;;;;38.30;23.53;;;;;;;3.74;92.89;100292.41;4993270;28;20788;-70
2022/12/27 02:26:21;;;;;;;66.27;38.37;;;;;;;3.74;90.72;100295.03;4952795;29;20536;-69
2022/12/27 02:29:06;;;;;;;51.40;30.27;;;;;;;3.69;91.07;100288.50;4992128;28;20198;-70
2022/12/27 02:31:39;;;;;;;44.27;25.30;;;;;;;3.75;92.50;100291.44;4974018;28;20691;-70
2022/12/27 02:34:14;;;;;;;35.53;23.13;;;;;;;3.77;91.87;100281.66;4974027;28;20191;-70
2022/12/27 02:36:44;;;;;;;37.63;24.13;;;;;;;3.83;91.81;100275.84;4975209;28;20435;-70
2022/12/27 02:39:12;;;;;;;38.43;22.20;;;;;;;3.87;90.66;100287.75;4974733;28;20239;-70
2022/12/27 02:53:04;;;;;;;37.33;21.37;;;;;;;3.94;89.35;100283.63;4974262;28;20584;-71
2022/12/27 02:55:40;;;;;;;34.10;21.87;;;;;;;3.82;89.62;100284.69;4974137;28;20652;-70
2022/12/27 02:58:27;;;;;;;36.47;22.23;;;;;;;3.81;91.12;100288.28;4974741;28;20493;-70
2022/12/27 03:04:05;;;;;;;34.87;22.43;;;;;;;3.87;90.56;100287.75;4974096;28;20670;-70
2022/12/27 03:06:46;;;;;;;32.60;20.60;;;;;;;3.78;90.84;100287.72;4974056;28;20509;-70
2022/12/27 03:18:20;;;;;;;34.57;20.57;;;;;;;3.82;91.57;100274.19;4973982;28;20481;-69
2022/12/27 03:26:21;;;;;;;28.83;20.10;;;;;;;3.72;92.83;100275.94;4973491;28;20917;-70
2022/12/27 03:34:37;;;;;;;37.93;21.10;;;;;;;3.78;90.77;100257.03;4992795;28;20401;-70
2022/12/27 03:40:02;;;;;;;27.93;19.13;;;;;;;3.62;92.07;100261.09;4992617;28;20488;-70
2022/12/27 03:45:20;;;;;;;30.77;21.20;;;;;;;3.59;92.92;100256.94;4992483;28;20560;-70
2022/12/27 03:47:53;;;;;;;34.47;20.27;;;;;;;3.64;93.46;100248.69;4993733;28;20462;-70
2022/12/27 03:50:27;;;;;;;32.70;19.60;;;;;;;3.57;91.90;100253.66;4992790;28;20473;-70
2022/12/27 03:52:57;;;;;;;36.63;19.93;;;;;;;3.51;91.97;100253.34;4992482;28;20465;-70
2022/12/27 03:55:25;;;;;;;27.90;19.97;;;;;;;3.43;93.18;100247.94;4993280;28;20187;-70
2022/12/27 03:57:52;;;;;;;37.40;23.67;;;;;;;3.40;93.16;100250.81;4993257;28;20499;-69
2022/12/27 04:00:19;;;;;;;31.53;20.20;;;;;;;3.37;93.00;100253.69;4992338;28;20528;-70
2022/12/27 04:02:45;;;;;;;34.10;21.23;;;;;;;3.33;93.18;100261.00;4992571;28;20445;-69
2022/12/27 04:05:12;;;;;;;31.20;20.27;;;;;;;3.41;93.77;100279.56;4992290;28;20469;-69
2022/12/27 04:35:03;;;;;;;31.73;19.53;;;;;;;3.28;91.64;100273.69;4992532;28;20409;-70
2022/12/27 04:37:29;;;;;;;32.40;20.30;;;;;;;3.19;91.50;100263.97;4991753;28;20945;-69
2022/12/27 04:56:30;;;;;;;30.30;19.17;;;;;;;3.24;92.17;100287.22;4995940;28;20464;-70
2022/12/27 05:04:25;;;;;;;28.20;19.10;;;;;;;3.33;91.48;100292.50;4996321;28;20404;-69
2022/12/27 05:06:53;;;;;;;30.83;18.50;;;;;;;3.29;90.71;100288.47;4995344;28;20449;-70
2022/12/27 05:14:58;;;;;;;38.53;22.13;;;;;;;3.15;91.43;100290.63;4982669;28;20437;-70
2022/12/27 05:17:25;;;;;;;35.10;20.27;;;;;;;3.10;91.11;100287.56;4994852;28;20445;-70
2022/12/27 05:19:51;;;;;;;29.67;20.53;;;;;;;3.14;91.77;100292.41;4995184;28;20437;-69
2022/12/27 05:27:47;;;;;;;29.73;20.10;;;;;;;3.22;91.17;100274.22;4994933;28;20418;-69
2022/12/27 05:30:14;;;;;;;33.93;22.10;;;;;;;3.26;91.52;100280.84;4994692;28;20449;-69
2022/12/27 05:32:41;;;;;;;37.00;23.07;;;;;;;3.29;91.22;100287.63;4994936;28;20528;-69
2022/12/27 05:35:08;;;;;;;41.30;23.20;;;;;;;3.27;90.83;100282.50;4994634;28;20449;-69
2022/12/27 05:37:35;;;;;;;31.27;20.33;;;;;;;3.28;90.58;100288.63;4994695;28;20450;-69
2022/12/27 05:40:01;;;;;;;35.37;20.57;;;;;;;3.24;90.32;100293.31;4994914;28;20473;-70
2022/12/27 05:42:28;;;;;;;30.43;19.33;;;;;;;3.16;91.20;100284.41;4994787;28;20934;-69
2022/12/27 05:44:56;;;;;;;29.53;19.90;;;;;;;3.11;90.89;100292.66;4995014;28;20457;-69
2022/12/27 05:47:23;;;;;;;32.07;20.07;;;;;;;3.15;91.32;100291.44;4994767;28;20492;-70
2022/12/27 05:49:49;;;;;;;28.77;19.00;;;;;;;3.07;91.75;100299.13;4994493;28;20473;-70
2022/12/27 05:52:16;;;;;;;33.83;20.83;;;;;;;3.09;92.09;100283.25;4994241;28;20513;-69
2022/12/27 05:54:43;;;;;;;37.13;21.57;;;;;;;3.19;92.02;100290.22;4993773;28;21011;-69
2022/12/27 05:57:09;;;;;;;29.53;18.87;;;;;;;3.21;91.87;100287.47;4994025;28;20878;-69
2022/12/27 05:59:36;;;;;;;35.40;21.10;;;;;;;3.15;90.96;100288.00;4994381;28;20441;-69
2022/12/27 06:02:04;;;;;;;44.93;21.20;;;;;;;3.08;92.02;100295.56;4994241;28;20449;-69
2022/12/27 06:04:31;;;;;;;36.43;19.67;;;;;;;3.05;92.91;100295.81;4994093;28;20942;-69
2022/12/27 06:06:58;;;;;;;38.83;20.60;;;;;;;3.03;92.59;100302.16;4994282;28;20445;-69
2022/12/27 06:09:26;;;;;;;39.90;20.87;;;;;;;3.10;93.25;100298.88;4994098;28;20524;-69
2022/12/27 06:11:52;;;;;;;36.63;22.40;;;;;;;3.15;92.37;100296.69;4993909;28;20261;-69
2022/12/27 06:14:19;;;;;;;40.07;23.13;;;;;;;3.16;93.22;100289.66;4993657;28;21020;-70
2022/12/27 06:16:46;;;;;;;37.87;23.50;;;;;;;3.19;93.01;100289.41;4993513;28;20480;-69
2022/12/27 06:19:14;;;;;;;38.77;21.73;;;;;;;3.31;92.85;100304.09;4993597;28;20473;-69
2022/12/27 06:21:41;;;;;;;46.33;22.87;;;;;;;3.38;92.69;100300.81;4994686;28;20531;-71
2022/12/27 06:24:07;;;;;;;45.07;20.87;;;;;;;3.47;92.24;100305.28;4993831;28;20445;-70
2022/12/27 06:26:34;;;;;;;34.47;19.87;;;;;;;3.62;92.92;100303.13;4993549;28;20437;-70
2022/12/27 06:29:01;;;;;;;34.97;20.70;;;;;;;3.81;92.75;100293.53;4993415;28;20430;-72
2022/12/27 06:31:28;;;;;;;37.33;20.60;;;;;;;4.00;91.77;100313.78;4993731;28;20453;-71
2022/12/27 06:33:55;;;;;;;31.77;19.83;;;;;;;4.26;92.07;100320.19;4993167;28;20481;-73
2022/12/27 06:36:26;;;;;;;35.93;20.43;;;;;;;4.41;90.53;100314.41;4993536;28;20446;-73
2022/12/27 06:38:53;;;;;;;46.20;23.33;;;;;;;4.72;90.11;100318.59;4993551;28;20187;-72
2022/12/27 06:41:20;;;;;;;30.17;17.33;;;;;;;5.06;89.94;100311.91;4993091;28;20932;-68
2022/12/27 06:43:47;;;;;;;36.10;24.43;;;;;;;5.58;89.86;100303.44;4993194;28;20202;-72
2022/12/27 06:46:16;;;;;;;43.27;26.63;;;;;;;5.87;87.39;100287.50;4993085;28;20622;-72
2022/12/27 06:48:43;;;;;;;68.83;42.27;;;;;;;6.16;83.06;100298.72;4992640;28;20595;-71
2022/12/27 06:51:11;;;;;;;67.33;43.07;;;;;;;6.45;82.73;100293.28;4992513;28;20658;-70
2022/12/27 06:53:39;;;;;;;66.00;42.43;;;;;;;6.63;80.48;100280.88;4990609;28;20218;-72
2022/12/27 06:56:08;;;;;;;49.83;30.87;;;;;;;6.71;79.86;100304.72;4993217;28;20191;-70
2022/12/27 06:58:35;;;;;;;58.90;35.00;;;;;;;6.82;81.07;100312.41;4993106;28;20199;-70
2022/12/27 07:01:07;;;;;;;52.70;33.90;;;;;;;7.13;79.48;100303.06;4993502;28;20257;-69
2022/12/27 07:03:34;;;;;;;46.30;30.70;;;;;;;7.39;77.72;100317.16;4992775;28;20191;-69
2022/12/27 07:08:36;;;;;;;28.10;18.87;;;;;;;7.96;76.21;100311.16;5437120;23;20900;-70
2022/12/27 07:11:07;;;;;;;31.80;20.43;;;;;;;8.23;73.83;100313.59;4992475;28;20185;-71
2022/12/27 07:13:34;;;;;;;30.17;22.10;;;;;;;8.52;73.66;100314.00;4992999;28;20202;-72
2022/12/27 07:16:00;;;;;;;36.37;22.10;;;;;;;8.82;74.07;100300.13;4993228;28;20198;-71
2022/12/27 07:18:27;;;;;;;38.03;22.40;;;;;;;9.14;72.23;100300.94;4992586;28;20735;-69
2022/12/27 07:20:54;;;;;;;33.90;20.67;;;;;;;9.35;72.34;100297.78;4992763;28;20624;-71
2022/12/27 07:23:20;;;;;;;39.73;19.13;;;;;;;9.60;71.00;100296.72;4992774;28;20662;-71
2022/12/27 07:25:47;;;;;;;35.97;20.33;;;;;;;9.86;68.88;100305.25;4992693;28;20677;-72
2022/12/27 07:28:15;;;;;;;28.70;19.53;;;;;;;10.14;69.22;100312.63;4992975;28;20194;-70
2022/12/27 07:30:42;;;;;;;36.60;20.73;;;;;;;10.45;67.55;100320.59;4978593;28;20191;-71
2022/12/27 07:33:09;;;;;;;31.30;21.17;;;;;;;10.64;66.68;100310.34;4972853;28;20290;-72
2022/12/27 07:35:36;;;;;;;34.10;20.70;;;;;;;10.80;65.50;100314.72;4973311;28;20195;-64
2022/12/27 07:38:02;;;;;;;29.30;20.77;;;;;;;10.71;65.79;100321.09;4973066;28;20196;-63
2022/12/27 07:40:29;;;;;;;30.43;20.20;;;;;;;10.75;66.23;100322.41;4974238;28;20254;-63
2022/12/27 07:42:56;;;;;;;38.67;23.93;;;;;;;10.96;64.95;100318.06;4973991;28;20203;-64
2022/12/27 07:45:24;;;;;;;37.57;24.63;;;;;;;11.16;63.96;100320.25;4973147;28;20254;-63
2022/12/27 07:47:50;;;;;;;43.17;28.10;;;;;;;11.34;63.96;100307.44;4992307;28;20273;-65
2022/12/27 07:50:17;;;;;;;52.40;29.83;;;;;;;11.60;63.88;100298.03;4985847;28;20196;-63
2022/12/27 07:52:44;;;;;;;50.23;27.13;;;;;;;11.72;62.33;100311.75;4988871;28;20290;-65
2022/12/27 07:55:10;;;;;;;37.60;22.20;;;;;;;12.01;61.71;100312.53;4992174;28;20218;-63
2022/12/27 07:57:37;;;;;;;30.43;18.00;;;;;;;12.10;60.02;100321.25;4985540;28;20200;-64
2022/12/27 08:00:05;;;;;;;29.33;19.73;;;;;;;12.12;60.54;100304.09;4990513;28;20563;-62
2022/12/27 08:02:33;;;;;;;33.03;20.53;;;;;;;12.15;64.22;100303.72;4991161;28;20205;-62
2022/12/27 08:05:00;;;;;;;29.33;18.20;;;;;;;12.40;61.43;100306.88;4992582;28;20197;-61
2022/12/27 08:07:26;;;;;;;31.70;19.53;;;;;;;12.35;61.00;100306.63;4992383;28;20200;-62
2022/12/27 08:09:53;;;;;;;26.63;16.57;;;;;;;12.34;60.59;100303.13;4992223;28;20268;-61
2022/12/27 08:12:20;;;;;;;31.73;21.07;;;;;;;12.42;60.13;100304.84;4992124;28;20711;-65
2022/12/27 08:14:46;;;;;;;30.30;21.17;;;;;;;12.21;60.63;100310.94;4992162;28;20738;-65
2022/12/27 08:17:19;;;;;;;34.20;22.83;;;;;;;12.35;61.14;100302.13;4994207;28;20641;-65
2022/12/27 08:19:47;;;;;;;31.33;21.80;;;;;;;12.63;60.05;100300.38;4995991;28;20657;-65
2022/12/27 08:22:14;;;;;;;28.17;19.67;;;;;;;12.86;58.75;100302.88;4994247;28;20200;-65
2022/12/27 08:24:41;;;;;;;29.00;19.37;;;;;;;13.08;57.68;100308.03;4993582;28;20200;-66
2022/12/27 08:27:07;;;;;;;31.57;20.97;;;;;;;13.35;56.79;100309.06;4995270;28;20231;-64
2022/12/27 08:29:34;;;;;;;38.43;20.83;;;;;;;13.62;55.65;100303.72;4994753;28;20198;-64
2022/12/27 08:32:01;;;;;;;35.30;22.10;;;;;;;13.85;55.44;100290.09;4994694;28;20259;-64
2022/12/27 08:34:28;;;;;;;45.90;24.53;;;;;;;13.92;54.13;100280.25;4995684;28;20725;-65
2022/12/27 08:36:56;;;;;;;45.80;27.40;;;;;;;13.85;54.96;100280.22;4996006;28;20194;-65
2022/12/27 08:39:23;;;;;;;90.67;44.97;;;;;;;13.86;54.27;100279.22;4995657;28;20598;-65
2022/12/27 08:41:49;;;;;;;62.80;32.73;;;;;;;13.92;54.77;100273.06;4995685;28;20249;-65
2022/12/27 08:44:16;;;;;;;53.93;29.73;;;;;;;14.14;53.01;100276.44;4995537;28;20198;-65
2022/12/27 08:46:43;;;;;;;58.60;29.10;;;;;;;14.31;52.94;100275.94;4995379;28;20197;-65
2022/12/27 08:49:09;;;;;;;55.70;25.77;;;;;;;14.50;52.09;100264.47;4995519;28;20198;-65
2022/12/27 08:51:36;;;;;;;37.17;24.00;;;;;;;14.65;51.55;100262.44;4995531;28;20221;-65
2022/12/27 08:54:04;;;;;;;36.63;22.97;;;;;;;14.70;51.12;100261.84;4995545;28;20265;-65
2022/12/27 08:56:31;;;;;;;36.87;23.23;;;;;;;14.86;51.51;100248.88;4996024;28;20194;-65
2022/12/27 08:58:58;;;;;;;45.27;19.63;;;;;;;15.08;49.87;100252.19;4995424;28;20658;-65
2022/12/27 09:01:25;;;;;;;29.07;17.80;;;;;;;15.24;49.52;100246.41;4995620;28;20559;-65
2022/12/27 09:03:52;;;;;;;23.97;15.90;;;;;;;15.27;49.81;100245.97;4995378;28;20214;-65
2022/12/27 09:06:20;;;;;;;18.73;14.93;;;;;;;15.38;49.84;100238.19;4995233;28;20195;-65
2022/12/27 09:08:49;;;;;;;24.27;14.40;;;;;;;15.51;48.80;100238.16;4995533;28;20238;-65
2022/12/27 09:11:19;;;;;;;16.03;13.07;;;;;;;15.66;49.11;100233.38;4995431;28;20214;-65
2022/12/27 09:13:46;;;;;;;18.87;13.27;;;;;;;15.82;48.47;100235.56;4995728;28;20221;-65
2022/12/27 09:16:15;;;;;;;16.77;12.40;;;;;;;15.87;47.85;100240.31;4995327;28;20195;-65
2022/12/27 09:18:43;;;;;;;24.80;14.23;;;;;;;15.90;48.02;100229.97;4995099;28;20203;-65
2022/12/27 09:21:12;;;;;;;20.87;13.77;;;;;;;16.02;47.66;100225.59;4995177;28;20203;-65
2022/12/27 09:23:39;;;;;;;21.90;12.97;;;;;;;16.16;48.00;100225.56;4995513;28;20199;-65
2022/12/27 09:26:07;;;;;;;14.13;11.47;;;;;;;16.18;47.04;100224.31;4995117;28;20579;-67
2022/12/27 09:28:36;;;;;;;14.13;10.93;;;;;;;16.02;48.75;100214.88;4993667;28;20202;-66
2022/12/27 09:31:03;;;;;;;23.93;12.40;;;;;;;16.18;47.98;100212.75;4994979;28;20195;-66
2022/12/27 09:33:31;;;;;;;18.57;11.63;;;;;;;16.31;47.81;100204.63;4994705;28;20776;-66
2022/12/27 09:36:02;;;;;;;13.70;12.13;;;;;;;16.36;47.16;100199.44;4994651;28;20199;-65
2022/12/27 09:38:29;;;;;;;17.17;12.17;;;;;;;16.32;47.88;100193.69;4994977;28;20569;-65
2022/12/27 09:40:58;;;;;;;14.97;10.87;;;;;;;15.88;48.64;100181.16;4994571;28;20191;-65
2022/12/27 09:43:34;;;;;;;15.10;11.00;;;;;;;15.78;48.79;100186.16;4994456;28;20198;-65
2022/12/27 09:46:05;;;;;;;19.07;12.00;;;;;;;15.82;48.44;100191.91;4994501;28;20241;-65
2022/12/27 09:48:36;;;;;;;17.03;12.00;;;;;;;15.88;49.12;100183.00;4994968;28;20183;-65
2022/12/27 09:51:10;;;;;;;20.23;11.87;;;;;;;15.92;49.37;100180.75;4994556;28;20568;-65
2022/12/27 09:53:45;;;;;;;14.27;11.20;;;;;;;15.81;49.17;100169.63;4994628;28;20214;-65
2022/12/27 09:56:14;;;;;;;14.97;12.20;;;;;;;15.59;50.08;100165.63;4994326;28;20209;-65
2022/12/27 09:58:46;;;;;;;25.00;12.67;;;;;;;15.66;50.51;100163.75;4994269;28;20575;-65
2022/12/27 10:01:22;;;;;;;20.50;14.57;;;;;;;15.69;50.79;100159.81;4994455;28;20183;-65
2022/12/27 10:03:49;;;;;;;23.80;15.80;;;;;;;15.76;50.42;100161.44;4995002;28;20249;-65
2022/12/27 10:06:30;;;;;;;21.40;14.53;;;;;;;15.86;50.59;100156.41;4994122;28;20570;-65
2022/12/27 10:09:04;;;;;;;23.40;14.77;;;;;;;15.98;50.61;100153.91;4994316;28;20681;-65
2022/12/27 10:11:40;;;;;;;23.17;13.43;;;;;;;16.13;49.91;100150.94;4994227;28;20206;-65
2022/12/27 10:14:18;;;;;;;21.43;14.37;;;;;;;16.21;49.33;100150.69;4994497;28;20230;-65
2022/12/27 10:16:52;;;;;;;22.40;14.93;;;;;;;16.34;49.53;100147.91;4994327;28;20191;-65
2022/12/27 10:19:29;;;;;;;29.83;15.53;;;;;;;16.48;48.68;100144.09;4994362;28;20545;-65
2022/12/27 10:22:08;;;;;;;20.47;15.13;;;;;;;16.52;49.29;100137.25;4994214;28;20256;-65
2022/12/27 10:24:40;;;;;;;29.23;18.70;;;;;;;16.51;48.84;100128.41;4994071;28;20571;-66
2022/12/27 10:27:14;;;;;;;22.47;15.60;;;;;;;16.68;48.13;100129.50;4993881;28;20186;-65
2022/12/27 10:29:41;;;;;;;23.03;14.07;;;;;;;16.83;47.52;100124.63;4993951;28;20201;-66
2022/12/27 10:32:12;;;;;;;23.23;14.43;;;;;;;17.01;47.45;100113.06;4993837;28;20223;-66
2022/12/27 10:34:40;;;;;;;27.57;14.40;;;;;;;17.17;47.01;100128.59;4993620;28;20711;-66
2022/12/27 10:37:07;;;;;;;31.30;15.63;;;;;;;17.16;47.92;100122.44;4993885;28;20195;-66
2022/12/27 10:39:37;;;;;;;31.03;17.33;;;;;;;17.22;47.63;100116.16;4994165;28;20207;-66
2022/12/27 10:42:10;;;;;;;26.17;14.57;;;;;;;17.28;48.23;100117.13;4993624;28;20285;-66
2022/12/27 10:44:36;;;;;;;31.57;16.60;;;;;;;17.39;47.44;100116.41;4994002;28;20196;-66
2022/12/27 10:47:03;;;;;;;35.80;17.53;;;;;;;17.52;48.03;100116.25;4993269;28;20253;-66
2022/12/27 10:49:32;;;;;;;40.83;17.67;;;;;;;17.63;46.42;100110.09;4993259;28;20309;-66
2022/12/27 10:52:08;;;;;;;31.73;17.23;;;;;;;17.80;45.65;100109.25;4993622;28;20256;-66
2022/12/27 10:54:35;;;;;;;26.33;18.03;;;;;;;17.89;45.07;100091.75;4993735;28;20220;-66
2022/12/27 10:57:18;;;;;;;28.30;16.00;;;;;;;17.95;45.15;100073.91;4993397;28;20253;-66
2022/12/27 10:59:45;;;;;;;30.60;16.53;;;;;;;17.86;45.80;100081.50;4993468;28;20190;-65
2022/12/27 11:02:17;;;;;;;23.57;16.07;;;;;;;17.70;46.69;100081.28;4992998;28;20657;-65
2022/12/27 11:05:00;;;;;;;29.17;14.97;;;;;;;17.53;46.77;100080.28;4993418;28;20259;-65
2022/12/27 11:07:32;;;;;;;35.43;15.77;;;;;;;17.64;47.22;100074.97;4990931;28;20260;-65
2022/12/27 11:10:07;;;;;;;27.13;15.07;;;;;;;17.71;47.00;100070.31;4993136;28;20229;-65
2022/12/27 11:12:35;;;;;;;42.73;15.57;;;;;;;17.74;47.09;100059.13;4993248;28;20189;-65
2022/12/27 11:15:03;;;;;;;31.17;14.77;;;;;;;17.32;48.64;100061.94;4993454;28;20262;-65
2022/12/27 11:17:37;;;;;;;21.57;15.50;;;;;;;17.37;48.75;100052.16;4992739;28;20736;-65
2022/12/27 11:20:18;;;;;;;18.33;13.17;;;;;;;17.21;50.05;100033.16;4992861;28;20573;-64
2022/12/27 11:22:50;;;;;;;21.40;13.53;;;;;;;17.27;51.00;100038.44;4992709;28;20210;-65
2022/12/27 11:25:18;;;;;;;24.03;12.67;;;;;;;17.10;51.25;100037.41;4993577;28;20190;-66
2022/12/27 11:27:48;;;;;;;25.80;13.23;;;;;;;17.07;51.68;100037.84;4992569;28;20200;-66
2022/12/27 11:30:26;;;;;;;20.70;12.70;;;;;;;17.21;51.37;100028.59;4993090;28;20187;-66
2022/12/27 11:32:54;;;;;;;21.13;12.03;;;;;;;17.24;51.98;100032.69;4992907;28;20257;-66
2022/12/27 11:35:22;;;;;;;18.20;11.43;;;;;;;17.33;51.69;100032.16;4992822;28;20628;-66
2022/12/27 11:37:51;;;;;;;29.63;12.67;;;;;;;17.44;52.44;100025.25;4992508;28;20249;-66
2022/12/27 11:40:25;;;;;;;28.60;13.10;;;;;;;17.76;51.99;100015.91;4992816;28;20199;-66
2022/12/27 11:42:58;;;;;;;30.23;11.93;;;;;;;18.04;51.11;100019.56;4992499;28;20182;-66
2022/12/27 11:45:33;;;;;;;29.23;12.63;;;;;;;18.33;50.28;100012.50;4992599;28;20187;-66
2022/12/27 11:48:06;;;;;;;20.13;10.27;;;;;;;18.45;50.14;100016.00;4992802;28;20252;-66
2022/12/27 11:50:57;;;;;;;21.00;10.73;;;;;;;18.70;49.34;100013.91;4992820;28;20246;-66
2022/12/27 11:53:44;;;;;;;19.67;10.10;;;;;;;18.92;48.95;100020.31;4999318;28;20210;-66
2022/12/27 11:56:21;;;;;;;15.97;9.80;;;;;;;19.12;48.36;100028.81;4999096;28;20195;-66
2022/12/27 11:59:24;;;;;;;24.50;12.97;;;;;;;19.17;46.63;100026.22;5000074;28;20189;-66
2022/12/27 12:02:13;;;;;;;20.57;14.17;;;;;;;19.09;45.38;100040.06;4999179;28;20278;-66
2022/12/27 12:04:59;;;;;;;18.50;13.83;;;;;;;19.16;45.61;100035.38;4999601;28;20194;-66
2022/12/27 12:07:46;;;;;;;20.70;13.03;;;;;;;19.14;44.76;100034.78;4999058;28;20209;-66
2022/12/27 12:10:25;;;;;;;19.77;12.50;;;;;;;19.02;45.35;100029.44;4999598;28;20239;-66
2022/12/27 12:13:08;;;;;;;24.40;13.13;;;;;;;19.09;45.13;100031.97;4999206;28;20186;-66
2022/12/27 12:15:55;;;;;;;23.60;13.83;;;;;;;19.20;44.97;100028.44;4998802;28;20243;-66
2022/12/27 12:18:37;;;;;;;23.23;12.63;;;;;;;19.12;45.15;100023.44;4999041;28;20197;-65
2022/12/27 12:21:25;;;;;;;14.60;9.33;;;;;;;19.16;45.14;100019.22;4999246;28;20192;-66
2022/12/27 12:24:23;;;;;;;11.67;4.27;;;;;;;18.95;44.95;100017.97;4998748;28;20186;-66
2022/12/27 12:27:03;;;;;;;6.00;4.03;;;;;;;18.67;45.57;100009.00;4998864;28;20191;-66
2022/12/27 12:29:53;;;;;;;5.67;4.03;;;;;;;18.62;45.68;100012.38;4998672;28;20182;-66
2022/12/27 12:32:34;;;;;;;7.90;5.03;;;;;;;18.66;45.84;100002.00;4998518;28;20187;-66
2022/12/27 12:35:25;;;;;;;6.57;4.30;;;;;;;18.70;45.83;100019.31;4999063;28;20248;-66
2022/12/27 12:38:05;;;;;;;18.23;4.60;;;;;;;18.78;45.94;100016.25;4998975;28;20245;-66
2022/12/27 12:41:06;;;;;;;5.70;5.27;;;;;;;18.96;45.73;100025.00;4998638;28;20654;-66
2022/12/27 12:43:55;;;;;;;8.87;6.10;;;;;;;19.12;45.49;100026.94;4986540;28;20235;-66
2022/12/27 12:46:30;;;;;;;6.03;5.23;;;;;;;19.16;45.13;100030.00;4999731;28;20617;-66
2022/12/27 12:49:22;;;;;;;7.67;4.50;;;;;;;18.88;45.91;100027.22;4998833;28;20190;-66
2022/12/27 12:52:03;;;;;;;6.73;4.20;;;;;;;18.82;46.44;100029.00;4999488;28;20189;-66
2022/12/27 12:54:46;;;;;;;7.60;4.40;;;;;;;18.89;46.38;100028.84;4998717;28;20217;-67
2022/12/27 12:57:26;;;;;;;15.80;6.30;;;;;;;18.70;46.90;100025.50;4998416;28;20187;-65
2022/12/27 13:00:27;;;;;;;20.47;7.27;;;;;;;18.74;46.90;100031.25;4998723;28;20601;-65
2022/12/27 13:03:36;;;;;;;11.47;6.00;;;;;;;18.88;46.53;100038.00;4997491;28;20197;-65
2022/12/27 13:06:14;;;;;;;13.33;4.47;;;;;;;18.99;46.17;100035.28;4995856;28;20201;-65
2022/12/27 13:08:47;;;;;;;10.30;4.47;;;;;;;19.12;46.09;100035.00;4995285;28;20776;-65
2022/12/27 13:11:39;;;;;;;5.13;4.63;;;;;;;19.06;45.91;100035.16;4996115;28;20242;-65
2022/12/27 13:14:27;;;;;;;9.93;6.07;;;;;;;19.14;45.92;100046.38;4994999;28;20699;-65
2022/12/27 13:17:02;;;;;;;15.13;8.37;;;;;;;19.16;45.85;100046.16;4995344;28;20195;-66
2022/12/27 13:19:49;;;;;;;23.83;13.60;;;;;;;19.23;45.89;100050.38;4995679;28;20186;-65
2022/12/27 13:22:32;;;;;;;11.83;8.63;;;;;;;19.29;45.88;100043.22;4995429;28;20222;-66